Time;durP1;ratioP1;P1;durP2;ratioP2;P2;SDS_P1;SDS_P2;PMS_P1;PMS_P2;Temp;Humidity;BMP_temperature;BMP_pressure;BME280_temperature;BME280_humidity;BME280_pressure;Samples;Min_cycle;Max_cycle;Signal;HPM_P1;HPM_P2
2024/04/17 00:02:17;;;;;;;4.03;3.70;;;;;;;;;;5450383;26;20355;-72
2024/04/17 00:04:43;;;;;;;3.58;3.35;;;;;;;;;;5450710;26;20225;-72
2024/04/17 00:07:12;;;;;;;4.20;3.80;;;;;;;;;;5450846;26;20254;-72
2024/04/17 00:09:38;;;;;;;4.20;3.80;;;;;;;;;;5450651;26;20226;-72
2024/04/17 00:12:07;;;;;;;3.58;3.38;;;;;;;;;;5450279;26;20226;-72
2024/04/17 00:14:34;;;;;;;4.70;4.35;;;;;;;;;;5450449;26;20292;-73
2024/04/17 00:17:06;;;;;;;4.78;3.75;;;;;;;;;;5450421;26;20292;-73
2024/04/17 00:19:32;;;;;;;3.40;3.10;;;;;;;;;;5450724;26;20732;-73
2024/04/17 00:22:01;;;;;;;3.63;3.33;;;;;;;;;;5450523;26;20276;-73
2024/04/17 00:24:27;;;;;;;4.40;4.00;;;;;;;;;;5450343;26;20315;-72
2024/04/17 00:26:56;;;;;;;4.20;3.80;;;;;;;;;;5450238;26;20575;-72
2024/04/17 00:29:22;;;;;;;3.47;3.17;;;;;;;;;;5450321;26;20269;-73
2024/04/17 00:31:50;;;;;;;4.07;3.67;;;;;;;;;;5450409;26;20629;-73
2024/04/17 00:34:19;;;;;;;4.32;4.00;;;;;;;;;;5450015;26;20253;-73
2024/04/17 00:36:48;;;;;;;4.25;3.95;;;;;;;;;;5450089;26;20229;-73
2024/04/17 00:39:14;;;;;;;4.10;3.70;;;;;;;;;;5450187;26;20264;-72
2024/04/17 00:41:43;;;;;;;4.13;3.75;;;;;;;;;;5450174;26;20230;-73
2024/04/17 00:44:09;;;;;;;4.10;3.75;;;;;;;;;;5449875;26;20722;-72
2024/04/17 00:46:38;;;;;;;5.30;4.35;;;;;;;;;;5450251;26;20230;-73
2024/04/17 00:49:07;;;;;;;4.93;4.53;;;;;;;;;;5450132;26;20227;-73
2024/04/17 00:51:37;;;;;;;4.07;3.75;;;;;;;;;;5449908;26;20219;-73
2024/04/17 00:54:06;;;;;;;4.90;4.50;;;;;;;;;;5449750;26;20226;-73
2024/04/17 00:56:33;;;;;;;4.43;4.13;;;;;;;;;;5449859;26;20226;-73
2024/04/17 00:59:02;;;;;;;5.95;5.28;;;;;;;;;;5450059;26;20222;-73
2024/04/17 01:01:28;;;;;;;4.35;4.05;;;;;;;;;;5449778;26;20273;-73
2024/04/17 01:03:57;;;;;;;4.43;3.75;;;;;;;;;;5449538;26;20619;-73
2024/04/17 01:06:23;;;;;;;5.18;4.68;;;;;;;;;;5448516;26;20720;-73
2024/04/17 01:08:55;;;;;;;4.80;4.40;;;;;;;;;;5449616;26;20292;-73
2024/04/17 01:11:21;;;;;;;4.90;3.80;;;;;;;;;;5449841;26;20570;-73
2024/04/17 01:13:50;;;;;;;4.75;4.35;;;;;;;;;;5449454;26;20335;-73
2024/04/17 01:16:16;;;;;;;5.90;3.75;;;;;;;;;;5449904;26;20227;-73
2024/04/17 01:18:47;;;;;;;4.90;4.50;;;;;;;;;;5449458;26;20242;-73
2024/04/17 01:21:13;;;;;;;4.32;4.03;;;;;;;;;;5449826;26;20226;-73
2024/04/17 01:23:42;;;;;;;4.93;4.47;;;;;;;;;;5423782;26;20313;-73
2024/04/17 01:26:10;;;;;;;5.75;5.28;;;;;;;;;;5413645;26;20227;-73
2024/04/17 01:28:39;;;;;;;6.18;4.93;;;;;;;;;;5413623;26;20316;-73
2024/04/17 01:31:07;;;;;;;5.38;4.82;;;;;;;;;;5413681;26;20223;-73
2024/04/17 01:33:37;;;;;;;4.90;4.47;;;;;;;;;;5413158;26;20231;-73
2024/04/17 01:36:03;;;;;;;7.05;6.35;;;;;;;;;;5413716;26;20235;-73
2024/04/17 01:38:32;;;;;;;6.45;5.85;;;;;;;;;;5413353;26;20242;-73
2024/04/17 01:40:58;;;;;;;6.05;5.50;;;;;;;;;;5413356;26;20270;-73
2024/04/17 01:43:31;;;;;;;6.05;5.00;;;;;;;;;;5413283;26;20176;-73
2024/04/17 01:45:58;;;;;;;10.80;5.88;;;;;;;;;;5413325;26;20228;-73
2024/04/17 01:48:27;;;;;;;5.97;4.90;;;;;;;;;;5413242;26;20239;-73
2024/04/17 01:50:53;;;;;;;6.05;5.55;;;;;;;;;;5413544;26;20236;-73
2024/04/17 01:53:22;;;;;;;6.60;5.50;;;;;;;;;;5412845;26;20265;-73
2024/04/17 01:55:48;;;;;;;7.57;5.95;;;;;;;;;;5413443;26;20271;-73
2024/04/17 01:58:17;;;;;;;5.70;5.20;;;;;;;;;;5412786;26;20243;-73
2024/04/17 02:00:45;;;;;;;6.57;5.30;;;;;;;;;;5428090;26;20227;-73
2024/04/17 02:03:14;;;;;;;7.28;5.95;;;;;;;;;;5448914;26;20299;-73
2024/04/17 02:05:40;;;;;;;7.72;5.80;;;;;;;;;;5447640;26;20269;-73
2024/04/17 02:08:10;;;;;;;5.85;5.35;;;;;;;;;;5449326;26;20239;-73
2024/04/17 02:10:36;;;;;;;6.10;5.55;;;;;;;;;;5449586;26;20565;-73
2024/04/17 02:13:05;;;;;;;5.68;5.18;;;;;;;;;;5448729;26;20237;-73
2024/04/17 02:15:32;;;;;;;5.20;4.70;;;;;;;;;;5449047;26;20280;-73
2024/04/17 02:18:03;;;;;;;4.88;4.47;;;;;;;;;;5450312;26;20288;-73
2024/04/17 02:20:29;;;;;;;4.05;3.65;;;;;;;;;;5452755;26;20223;-72
2024/04/17 02:22:58;;;;;;;4.97;4.53;;;;;;;;;;5452085;26;20269;-73
2024/04/17 02:25:24;;;;;;;10.52;5.28;;;;;;;;;;5452321;26;20226;-72
2024/04/17 02:27:53;;;;;;;5.68;5.18;;;;;;;;;;5452203;26;20355;-73
2024/04/17 02:30:19;;;;;;;6.65;5.57;;;;;;;;;;5452831;26;20224;-73
2024/04/17 02:32:48;;;;;;;5.18;4.57;;;;;;;;;;5452264;26;20312;-73
2024/04/17 02:35:16;;;;;;;6.18;5.57;;;;;;;;;;5452289;26;20269;-73
2024/04/17 02:37:45;;;;;;;7.47;4.88;;;;;;;;;;5451924;26;20252;-73
2024/04/17 02:40:12;;;;;;;6.97;5.40;;;;;;;;;;5452143;26;20227;-73
2024/04/17 02:42:40;;;;;;;5.40;4.90;;;;;;;;;;5451918;26;20252;-73
2024/04/17 02:45:07;;;;;;;6.05;5.45;;;;;;;;;;5452431;26;20222;-73
2024/04/17 02:47:36;;;;;;;5.70;5.20;;;;;;;;;;5452143;26;20255;-73
2024/04/17 02:50:02;;;;;;;6.55;5.90;;;;;;;;;;5452375;26;20726;-73
2024/04/17 02:52:33;;;;;;;6.00;5.43;;;;;;;;;;5451503;26;20293;-73
2024/04/17 02:55:02;;;;;;;5.97;5.38;;;;;;;;;;5452075;26;20664;-73
2024/04/17 02:57:31;;;;;;;6.65;5.88;;;;;;;;;;5452044;26;20234;-73
2024/04/17 02:59:57;;;;;;;6.53;5.93;;;;;;;;;;5451819;26;20262;-73
2024/04/17 03:02:26;;;;;;;5.47;4.95;;;;;;;;;;5451690;26;20230;-73
2024/04/17 03:04:52;;;;;;;6.78;5.90;;;;;;;;;;5452077;26;20231;-73
2024/04/17 03:07:21;;;;;;;8.50;7.70;;;;;;;;;;5451646;26;20849;-73
2024/04/17 03:09:50;;;;;;;6.30;5.70;;;;;;;;;;5450548;26;20974;-73
2024/04/17 03:12:19;;;;;;;8.05;6.82;;;;;;;;;;5451284;26;20226;-73
2024/04/17 03:14:45;;;;;;;8.02;7.05;;;;;;;;;;5451600;26;20230;-73
2024/04/17 03:17:14;;;;;;;7.38;6.50;;;;;;;;;;5451669;26;20787;-73
2024/04/17 03:19:41;;;;;;;7.35;6.65;;;;;;;;;;5451597;26;20273;-73
2024/04/17 03:22:09;;;;;;;7.88;7.10;;;;;;;;;;5451586;26;20230;-73
2024/04/17 03:24:35;;;;;;;10.32;7.50;;;;;;;;;;5451502;26;20603;-73
2024/04/17 03:27:07;;;;;;;7.70;6.90;;;;;;;;;;5451850;26;20234;-73
2024/04/17 03:29:33;;;;;;;8.57;7.63;;;;;;;;;;5450721;26;20262;-73
2024/04/17 03:32:04;;;;;;;7.75;7.05;;;;;;;;;;5451471;26;20222;-73
2024/04/17 03:34:30;;;;;;;7.00;6.40;;;;;;;;;;5451314;26;20231;-73
2024/04/17 03:36:59;;;;;;;8.90;8.00;;;;;;;;;;5451180;26;20269;-73
2024/04/17 03:39:28;;;;;;;9.25;6.88;;;;;;;;;;5451367;26;20233;-73
2024/04/17 03:41:57;;;;;;;8.02;7.22;;;;;;;;;;5451186;26;20648;-73
2024/04/17 03:44:28;;;;;;;6.78;6.07;;;;;;;;;;5451104;26;20760;-72
2024/04/17 03:46:58;;;;;;;8.60;7.72;;;;;;;;;;5451507;26;20240;-71
2024/04/17 03:49:25;;;;;;;10.50;8.65;;;;;;;;;;5451699;26;20347;-72
2024/04/17 03:51:54;;;;;;;7.55;6.80;;;;;;;;;;5451304;26;20766;-71
2024/04/17 03:54:20;;;;;;;10.30;9.30;;;;;;;;;;5451012;26;20226;-71
2024/04/17 03:56:49;;;;;;;9.77;8.83;;;;;;;;;;5450938;26;20258;-71
2024/04/17 03:59:15;;;;;;;10.02;8.55;;;;;;;;;;5451082;26;20521;-71
2024/04/17 04:01:47;;;;;;;11.13;9.57;;;;;;;;;;5451098;26;20226;-71
2024/04/17 04:04:13;;;;;;;9.07;7.87;;;;;;;;;;5450771;26;20232;-71
2024/04/17 04:06:41;;;;;;;11.05;8.55;;;;;;;;;;5450894;26;20522;-71
2024/04/17 04:09:08;;;;;;;10.60;9.48;;;;;;;;;;5449398;26;20236;-71
2024/04/17 04:11:37;;;;;;;8.98;8.02;;;;;;;;;;5450648;26;20349;-71
2024/04/17 04:14:05;;;;;;;10.52;8.57;;;;;;;;;;5435813;26;20239;-71
2024/04/17 04:16:34;;;;;;;10.55;9.48;;;;;;;;;;5450828;26;20773;-71
2024/04/17 04:19:03;;;;;;;13.45;11.80;;;;;;;;;;5450950;26;20365;-71
2024/04/17 04:21:32;;;;;;;13.18;11.82;;;;;;;;;;5450771;26;20234;-71
2024/04/17 04:23:58;;;;;;;10.80;9.70;;;;;;;;;;5450525;26;20281;-71
2024/04/17 04:26:27;;;;;;;10.18;9.18;;;;;;;;;;5450762;26;20725;-71
2024/04/17 04:28:53;;;;;;;14.30;9.70;;;;;;;;;;5451107;26;20243;-71
2024/04/17 04:31:22;;;;;;;8.73;7.88;;;;;;;;;;5450720;26;20334;-71
2024/04/17 04:33:48;;;;;;;9.82;8.82;;;;;;;;;;5450435;26;20268;-71
2024/04/17 04:36:19;;;;;;;9.77;8.30;;;;;;;;;;5450669;26;20245;-71
2024/04/17 04:38:46;;;;;;;10.25;8.93;;;;;;;;;;5450599;26;20476;-71
2024/04/17 04:41:15;;;;;;;10.07;8.57;;;;;;;;;;5448782;26;20618;-71
2024/04/17 04:43:41;;;;;;;11.60;9.95;;;;;;;;;;5450115;26;20236;-71
2024/04/17 04:46:10;;;;;;;12.98;8.80;;;;;;;;;;5450563;26;20725;-71
2024/04/17 04:48:36;;;;;;;10.77;8.95;;;;;;;;;;5450546;26;20289;-71
2024/04/17 04:51:05;;;;;;;9.45;8.18;;;;;;;;;;5449865;26;20571;-71
2024/04/17 04:53:34;;;;;;;9.63;8.65;;;;;;;;;;5449994;26;20243;-71
2024/04/17 04:56:04;;;;;;;10.82;9.40;;;;;;;;;;5450372;26;20731;-71
2024/04/17 04:58:30;;;;;;;10.35;8.85;;;;;;;;;;5450268;26;20239;-71
2024/04/17 05:00:59;;;;;;;10.90;9.43;;;;;;;;;;5450427;26;20235;-71
2024/04/17 05:03:25;;;;;;;11.50;9.65;;;;;;;;;;5450059;26;20464;-71
2024/04/17 05:05:54;;;;;;;11.23;10.03;;;;;;;;;;5450211;26;20340;-71
2024/04/17 05:08:20;;;;;;;11.30;10.07;;;;;;;;;;5450167;26;20477;-71
2024/04/17 05:10:52;;;;;;;10.43;9.32;;;;;;;;;;5450123;26;20476;-71
2024/04/17 05:13:18;;;;;;;11.80;10.60;;;;;;;;;;5449885;26;20266;-73
2024/04/17 05:15:47;;;;;;;12.05;9.85;;;;;;;;;;5450202;26;20333;-73
2024/04/17 05:18:13;;;;;;;12.18;10.10;;;;;;;;;;5449979;26;20244;-73
2024/04/17 05:20:42;;;;;;;14.50;10.23;;;;;;;;;;5450235;26;20704;-73
2024/04/17 05:23:08;;;;;;;11.55;9.60;;;;;;;;;;5449764;26;20730;-73
2024/04/17 05:25:37;;;;;;;12.30;9.73;;;;;;;;;;5450105;26;20243;-73
2024/04/17 05:28:06;;;;;;;11.02;9.93;;;;;;;;;;5450007;26;20757;-73
2024/04/17 05:30:35;;;;;;;12.65;9.60;;;;;;;;;;5450042;26;20730;-73
2024/04/17 05:33:01;;;;;;;12.30;10.23;;;;;;;;;;5449654;26;20235;-72
2024/04/17 05:35:30;;;;;;;11.07;9.98;;;;;;;;;;5449880;26;21069;-73
2024/04/17 05:37:56;;;;;;;10.80;9.65;;;;;;;;;;5449734;26;20295;-73
2024/04/17 05:40:25;;;;;;;11.70;10.20;;;;;;;;;;5449738;26;20345;-73
2024/04/17 05:42:51;;;;;;;9.40;8.40;;;;;;;;;;5449544;26;20237;-73
2024/04/17 05:45:22;;;;;;;10.60;9.15;;;;;;;;;;5449579;26;20540;-73
2024/04/17 05:47:48;;;;;;;9.50;8.50;;;;;;;;;;5449633;26;20244;-73
2024/04/17 05:50:17;;;;;;;9.45;8.55;;;;;;;;;;5448198;26;20473;-73
2024/04/17 05:52:44;;;;;;;9.40;8.43;;;;;;;;;;5450174;26;20263;-72
2024/04/17 05:55:12;;;;;;;9.10;7.95;;;;;;;;;;5453082;26;20281;-73
2024/04/17 05:57:38;;;;;;;8.80;7.28;;;;;;;;;;5452738;26;20577;-72
2024/04/17 06:00:08;;;;;;;8.75;6.78;;;;;;;;;;5452839;26;20231;-73
2024/04/17 06:02:37;;;;;;;8.27;7.60;;;;;;;;;;5452351;26;20241;-73
2024/04/17 06:05:06;;;;;;;7.68;6.22;;;;;;;;;;5452786;26;20307;-73
2024/04/17 06:07:32;;;;;;;6.80;5.80;;;;;;;;;;5452695;26;20247;-72
2024/04/17 06:10:01;;;;;;;6.10;5.50;;;;;;;;;;5452752;26;20269;-73
2024/04/17 06:12:27;;;;;;;6.10;5.60;;;;;;;;;;5451358;26;20228;-72
2024/04/17 06:14:56;;;;;;;8.13;6.50;;;;;;;;;;5451370;26;20343;-73
2024/04/17 06:17:22;;;;;;;5.27;4.80;;;;;;;;;;5451453;26;20541;-73
2024/04/17 06:19:53;;;;;;;7.38;6.18;;;;;;;;;;5452391;26;20526;-73
2024/04/17 06:22:20;;;;;;;6.00;5.40;;;;;;;;;;5451116;26;20293;-73
2024/04/17 06:24:49;;;;;;;8.05;5.20;;;;;;;;;;5451829;26;20280;-73
2024/04/17 06:27:15;;;;;;;6.87;5.97;;;;;;;;;;5451194;26;20293;-72
2024/04/17 06:29:43;;;;;;;7.70;5.38;;;;;;;;;;5416511;26;20478;-73
2024/04/17 06:32:10;;;;;;;6.57;5.93;;;;;;;;;;5436656;26;20240;-72
2024/04/17 06:34:39;;;;;;;7.70;7.00;;;;;;;;;;5451304;26;20808;-73
2024/04/17 06:37:08;;;;;;;5.75;5.20;;;;;;;;;;5451520;26;20251;-73
2024/04/17 06:39:37;;;;;;;5.90;5.20;;;;;;;;;;5451545;26;20352;-73
2024/04/17 06:42:03;;;;;;;7.60;4.73;;;;;;;;;;5451272;26;20285;-73
2024/04/17 06:44:33;;;;;;;5.73;5.17;;;;;;;;;;5451862;26;20481;-73
2024/04/17 06:47:00;;;;;;;5.33;4.80;;;;;;;;;;5450667;26;20889;-73
2024/04/17 06:49:29;;;;;;;4.23;3.67;;;;;;;;;;5451219;26;20594;-73
2024/04/17 06:51:56;;;;;;;4.43;4.07;;;;;;;;;;5450808;26;20476;-73
2024/04/17 06:54:27;;;;;;;4.80;4.40;;;;;;;;;;5450990;26;20785;-73
2024/04/17 06:56:53;;;;;;;4.53;4.13;;;;;;;;;;5452365;26;20486;-73
2024/04/17 06:59:22;;;;;;;5.83;5.33;;;;;;;;;;5452075;26;20587;-73
2024/04/17 07:01:48;;;;;;;5.68;5.07;;;;;;;;;;5451851;26;20473;-73
2024/04/17 07:04:17;;;;;;;5.43;4.93;;;;;;;;;;5450155;26;20328;-73
2024/04/17 07:06:43;;;;;;;6.07;4.80;;;;;;;;;;5452047;26;20526;-73
2024/04/17 07:09:12;;;;;;;6.90;5.20;;;;;;;;;;5452440;26;20469;-73
2024/04/17 07:11:43;;;;;;;4.80;4.40;;;;;;;;;;5452186;26;21015;-73
2024/04/17 07:14:09;;;;;;;6.77;5.97;;;;;;;;;;5451771;26;20465;-73
2024/04/17 07:16:38;;;;;;;4.40;4.00;;;;;;;;;;5451748;26;20551;-73
2024/04/17 07:19:04;;;;;;;5.70;5.30;;;;;;;;;;5420401;26;20472;-73
2024/04/17 07:21:33;;;;;;;5.87;5.37;;;;;;;;;;5450797;26;20474;-73
2024/04/17 07:23:59;;;;;;;4.40;4.00;;;;;;;;;;5450352;26;21091;-74
2024/04/17 07:26:28;;;;;;;5.67;5.17;;;;;;;;;;5451037;26;20591;-73
2024/04/17 07:28:57;;;;;;;4.30;3.90;;;;;;;;;;5451727;26;20534;-73
2024/04/17 07:31:26;;;;;;;4.83;4.43;;;;;;;;;;5450593;26;20487;-74
2024/04/17 07:33:52;;;;;;;4.90;3.97;;;;;;;;;;5450134;26;20920;-74
2024/04/17 07:36:21;;;;;;;4.83;4.43;;;;;;;;;;5450837;26;20478;-74
2024/04/17 07:38:47;;;;;;;4.30;3.90;;;;;;;;;;5451433;26;20914;-74
2024/04/17 07:41:15;;;;;;;5.17;4.77;;;;;;;;;;5451421;26;20530;-74
2024/04/17 07:43:42;;;;;;;3.73;3.43;;;;;;;;;;5451151;26;20593;-74
2024/04/17 07:46:13;;;;;;;4.60;4.20;;;;;;;;;;5451533;26;20486;-74
2024/04/17 07:48:39;;;;;;;4.40;4.00;;;;;;;;;;5451306;26;20874;-74
2024/04/17 07:51:08;;;;;;;4.20;3.80;;;;;;;;;;5451147;26;20522;-74
2024/04/17 07:53:34;;;;;;;8.10;5.20;;;;;;;;;;5450697;26;20987;-73
2024/04/17 07:56:03;;;;;;;4.93;4.53;;;;;;;;;;5451445;26;20478;-74
2024/04/17 07:58:29;;;;;;;6.87;6.17;;;;;;;;;;5451183;26;20474;-73
2024/04/17 08:00:58;;;;;;;5.93;5.40;;;;;;;;;;5451352;26;20470;-73
2024/04/17 08:03:27;;;;;;;5.30;4.90;;;;;;;;;;5450882;26;20489;-74
2024/04/17 08:05:55;;;;;;;6.83;5.37;;;;;;;;;;5451312;26;20470;-74
2024/04/17 08:08:22;;;;;;;5.03;4.53;;;;;;;;;;5450948;26;20542;-73
2024/04/17 08:10:50;;;;;;;5.87;5.37;;;;;;;;;;5451289;26;20527;-74
2024/04/17 08:13:17;;;;;;;8.53;4.17;;;;;;;;;;5450445;26;20470;-74
2024/04/17 08:15:46;;;;;;;4.30;3.90;;;;;;;;;;5450546;26;20478;-74
2024/04/17 08:18:12;;;;;;;4.83;4.43;;;;;;;;;;5450701;26;20482;-74
2024/04/17 08:20:44;;;;;;;5.83;4.47;;;;;;;;;;5450931;26;20519;-74
2024/04/17 08:23:11;;;;;;;5.30;4.47;;;;;;;;;;5450575;26;20474;-74
2024/04/17 08:25:39;;;;;;;6.00;5.40;;;;;;;;;;5450913;26;21012;-75
2024/04/17 08:28:06;;;;;;;5.90;5.27;;;;;;;;;;5449786;26;20482;-75
2024/04/17 08:30:34;;;;;;;4.93;4.10;;;;;;;;;;5449737;26;20577;-74
2024/04/17 08:33:00;;;;;;;4.73;4.33;;;;;;;;;;5447584;26;20623;-74
2024/04/17 08:35:29;;;;;;;6.67;6.00;;;;;;;;;;5435609;26;20468;-74
2024/04/17 08:37:58;;;;;;;5.50;5.13;;;;;;;;;;5431362;26;20537;-74
2024/04/17 08:40:27;;;;;;;6.53;6.03;;;;;;;;;;5433578;26;20615;-74
2024/04/17 08:42:55;;;;;;;9.23;5.93;;;;;;;;;;5449840;26;20482;-74
2024/04/17 08:45:27;;;;;;;7.63;5.93;;;;;;;;;;5449889;26;20470;-74
2024/04/17 08:47:54;;;;;;;5.87;5.37;;;;;;;;;;5422388;26;21044;-74
2024/04/17 08:50:24;;;;;;;7.27;6.37;;;;;;;;;;5445607;26;20474;-74
2024/04/17 08:52:51;;;;;;;6.73;5.20;;;;;;;;;;5449953;26;20478;-74
2024/04/17 08:55:23;;;;;;;6.10;5.50;;;;;;;;;;5450135;26;20478;-73
2024/04/17 08:57:50;;;;;;;4.47;4.17;;;;;;;;;;5449065;26;21043;-74
2024/04/17 09:00:18;;;;;;;4.03;3.73;;;;;;;;;;5428498;26;20467;-75
2024/04/17 09:02:47;;;;;;;4.67;4.00;;;;;;;;;;5439273;26;20532;-75
2024/04/17 09:05:16;;;;;;;3.80;2.90;;;;;;;;;;5430844;26;20523;-75
2024/04/17 09:07:43;;;;;;;3.93;3.20;;;;;;;;;;5449302;26;20483;-75
2024/04/17 09:10:12;;;;;;;3.80;3.60;;;;;;;;;;5444755;26;20592;-75
2024/04/17 09:12:44;;;;;;;6.33;3.40;;;;;;;;;;5423726;26;20518;-76
2024/04/17 09:15:15;;;;;;;4.57;4.17;;;;;;;;;;5449572;26;20470;-75
2024/04/17 09:17:41;;;;;;;6.07;4.50;;;;;;;;;;5448882;26;20527;-75
2024/04/17 09:20:11;;;;;;;3.73;3.07;;;;;;;;;;5449799;26;20537;-75
2024/04/17 09:22:37;;;;;;;8.20;3.47;;;;;;;;;;5433564;26;20515;-75
2024/04/17 09:25:06;;;;;;;5.17;4.87;;;;;;;;;;5439848;26;20542;-75
2024/04/17 09:27:33;;;;;;;7.30;2.90;;;;;;;;;;5447763;26;21081;-75
2024/04/17 09:30:04;;;;;;;4.23;2.97;;;;;;;;;;5449451;26;20538;-75
2024/04/17 09:32:30;;;;;;;5.33;3.00;;;;;;;;;;5416708;26;20536;-75
2024/04/17 09:34:59;;;;;;;2.77;2.50;;;;;;;;;;5438790;26;20894;-74
2024/04/17 09:37:25;;;;;;;4.73;2.87;;;;;;;;;;5440202;26;21041;-75
2024/04/17 09:40:04;;;;;;;4.73;2.60;;;;;;;;;;5426822;26;20480;-74
2024/04/17 09:42:33;;;;;;;2.60;2.40;;;;;;;;;;5438740;26;20475;-74
2024/04/17 09:45:02;;;;;;;3.20;3.00;;;;;;;;;;5429134;26;21385;-74
2024/04/17 09:47:31;;;;;;;3.73;3.23;;;;;;;;;;5449037;26;20482;-74
2024/04/17 09:49:59;;;;;;;3.83;3.57;;;;;;;;;;5436309;26;20523;-74
2024/04/17 09:52:29;;;;;;;3.50;3.07;;;;;;;;;;5431059;26;20466;-74
2024/04/17 09:54:56;;;;;;;5.30;4.90;;;;;;;;;;5423811;26;21047;-75
2024/04/17 09:57:25;;;;;;;4.53;4.20;;;;;;;;;;5430597;26;20535;-74
2024/04/17 09:59:52;;;;;;;5.10;3.53;;;;;;;;;;5433267;26;20475;-74
2024/04/17 10:02:25;;;;;;;3.13;2.80;;;;;;;;;;5447921;26;20474;-74
2024/04/17 10:04:52;;;;;;;8.37;4.40;;;;;;;;;;5449130;26;20475;-74
2024/04/17 10:07:24;;;;;;;7.37;3.00;;;;;;;;;;5434461;26;20907;-74
2024/04/17 10:09:50;;;;;;;2.90;2.60;;;;;;;;;;5447228;26;20467;-74
2024/04/17 10:12:19;;;;;;;5.40;2.90;;;;;;;;;;5424426;26;20472;-74
2024/04/17 10:14:45;;;;;;;2.70;2.50;;;;;;;;;;5443910;26;20479;-74
2024/04/17 10:17:14;;;;;;;4.33;2.70;;;;;;;;;;5414305;26;20492;-75
2024/04/17 10:19:52;;;;;;;2.63;2.43;;;;;;;;;;5443288;26;20543;-75
2024/04/17 10:22:20;;;;;;;4.50;2.53;;;;;;;;;;5436708;26;20474;-74
2024/04/17 10:24:46;;;;;;;2.17;1.70;;;;;;;;;;5420602;26;20537;-76
2024/04/17 10:27:18;;;;;;;4.83;2.17;;;;;;;;;;5436525;26;20472;-75
2024/04/17 10:29:44;;;;;;;1.80;1.57;;;;;;;;;;5437737;26;20467;-78
2024/04/17 10:32:14;;;;;;;2.60;1.60;;;;;;;;;;5429856;26;20593;-77
2024/04/17 10:34:44;;;;;;;3.20;1.83;;;;;;;;;;5431009;26;20468;-78
2024/04/17 10:37:16;;;;;;;6.77;1.97;;;;;;;;;;5434462;26;20486;-77
2024/04/17 10:39:42;;;;;;;1.80;1.70;;;;;;;;;;5450977;26;20531;-77
2024/04/17 10:42:11;;;;;;;1.90;1.80;;;;;;;;;;5447372;26;20527;-76
2024/04/17 10:44:44;;;;;;;4.57;2.17;;;;;;;;;;5439584;26;20871;-77
2024/04/17 10:47:21;;;;;;;3.13;2.13;;;;;;;;;;5424636;26;21067;-76
2024/04/17 10:49:54;;;;;;;2.13;1.70;;;;;;;;;;5443959;26;20466;-76
2024/04/17 10:52:26;;;;;;;1.60;1.50;;;;;;;;;;5437045;26;20518;-76
2024/04/17 10:54:54;;;;;;;2.87;2.67;;;;;;;;;;5451956;26;20470;-78
2024/04/17 10:57:24;;;;;;;2.40;2.20;;;;;;;;;;5429770;26;20477;-77
2024/04/17 10:59:51;;;;;;;2.40;2.00;;;;;;;;;;5448317;26;21077;-76
2024/04/17 11:02:20;;;;;;;5.23;1.77;;;;;;;;;;5431345;26;21151;-77
2024/04/17 11:04:46;;;;;;;2.30;1.93;;;;;;;;;;5438276;26;20523;-77
2024/04/17 11:07:16;;;;;;;7.10;3.07;;;;;;;;;;5450523;26;20529;-78
2024/04/17 11:09:45;;;;;;;3.77;1.63;;;;;;;;;;5438521;26;20468;-77
2024/04/17 11:12:17;;;;;;;3.23;1.70;;;;;;;;;;5429053;26;20471;-76
2024/04/17 11:14:43;;;;;;;2.30;2.03;;;;;;;;;;5450817;26;20475;-78
2024/04/17 11:17:12;;;;;;;2.20;1.63;;;;;;;;;;5450918;26;20474;-77
2024/04/17 11:19:39;;;;;;;2.70;1.77;;;;;;;;;;5443140;26;20481;-75
2024/04/17 11:22:11;;;;;;;1.83;1.40;;;;;;;;;;5442318;26;20536;-77
2024/04/17 11:24:40;;;;;;;2.70;1.50;;;;;;;;;;5448445;26;20523;-77
2024/04/17 11:27:11;;;;;;;1.37;1.27;;;;;;;;;;5450042;26;20526;-76
2024/04/17 11:29:40;;;;;;;2.37;2.27;;;;;;;;;;5451327;26;20523;-76
2024/04/17 11:32:07;;;;;;;2.13;1.20;;;;;;;;;;5450966;26;20467;-76
2024/04/17 11:34:35;;;;;;;1.70;1.50;;;;;;;;;;5451019;26;20476;-75
2024/04/17 11:37:05;;;;;;;1.73;1.17;;;;;;;;;;5451067;26;20536;-76
2024/04/17 11:39:34;;;;;;;1.70;1.53;;;;;;;;;;5450699;26;20510;-77
2024/04/17 11:42:00;;;;;;;2.97;1.13;;;;;;;;;;5450854;26;20498;-76
2024/04/17 11:44:37;;;;;;;1.77;1.10;;;;;;;;;;5431513;26;20485;-77
2024/04/17 11:47:05;;;;;;;1.80;1.50;;;;;;;;;;5443407;26;20475;-73
2024/04/17 11:49:34;;;;;;;2.77;2.10;;;;;;;;;;5435767;26;20470;-73
2024/04/17 11:52:00;;;;;;;1.50;1.33;;;;;;;;;;5448511;26;20476;-75
2024/04/17 11:54:29;;;;;;;2.77;1.53;;;;;;;;;;5433190;26;20485;-74
2024/04/17 11:56:57;;;;;;;1.80;1.57;;;;;;;;;;5436531;26;20604;-75
2024/04/17 11:59:24;;;;;;;3.47;1.40;;;;;;;;;;5420293;26;20476;-74
2024/04/17 12:01:55;;;;;;;1.30;1.30;;;;;;;;;;5443430;26;20476;-74
2024/04/17 12:04:21;;;;;;;1.20;1.10;;;;;;;;;;5428860;26;20521;-76
2024/04/17 12:06:52;;;;;;;1.23;1.23;;;;;;;;;;5429408;26;20481;-75
2024/04/17 12:09:18;;;;;;;3.50;1.63;;;;;;;;;;5442465;26;20477;-74
2024/04/17 12:11:46;;;;;;;2.03;1.27;;;;;;;;;;5420140;26;20476;-73
2024/04/17 12:14:13;;;;;;;5.80;1.63;;;;;;;;;;5437169;26;20820;-77
2024/04/17 12:16:42;;;;;;;1.53;1.00;;;;;;;;;;5432807;26;20478;-75
2024/04/17 12:19:11;;;;;;;0.87;0.87;;;;;;;;;;5422997;26;20484;-76
2024/04/17 12:21:40;;;;;;;2.63;2.00;;;;;;;;;;5443812;26;20484;-74
2024/04/17 12:24:16;;;;;;;2.70;1.20;;;;;;;;;;5424589;26;20860;-73
2024/04/17 12:26:54;;;;;;;6.07;2.23;;;;;;;;;;5429853;26;20464;-74
2024/04/17 12:29:23;;;;;;;3.40;0.97;;;;;;;;;;5442357;26;21013;-74
2024/04/17 12:31:51;;;;;;;1.60;1.30;;;;;;;;;;5420434;26;20476;-74
2024/04/17 12:34:23;;;;;;;1.93;1.00;;;;;;;;;;5435601;26;20541;-74
2024/04/17 12:36:52;;;;;;;1.60;0.80;;;;;;;;;;5435172;26;20539;-73
2024/04/17 12:39:21;;;;;;;1.63;1.17;;;;;;;;;;5420908;26;20482;-74
2024/04/17 12:41:50;;;;;;;3.13;1.13;;;;;;;;;;5420329;26;20468;-75
2024/04/17 12:44:19;;;;;;;3.97;3.10;;;;;;;;;;5436049;26;20874;-74
2024/04/17 12:46:48;;;;;;;1.33;1.30;;;;;;;;;;5434453;26;21016;-76
2024/04/17 12:49:14;;;;;;;2.30;1.20;;;;;;;;;;5421839;26;20464;-73
2024/04/17 12:51:45;;;;;;;1.17;1.03;;;;;;;;;;5443404;26;20594;-74
2024/04/17 12:54:14;;;;;;;3.80;2.43;;;;;;;;;;5426122;26;20476;-74
2024/04/17 12:56:43;;;;;;;1.20;1.20;;;;;;;;;;5429835;26;20594;-74
2024/04/17 12:59:14;;;;;;;4.17;2.00;;;;;;;;;;5438318;26;20518;-74
2024/04/17 13:01:40;;;;;;;1.47;1.23;;;;;;;;;;5417531;26;20462;-75
2024/04/17 13:04:10;;;;;;;2.60;1.97;;;;;;;;;;5436709;26;20481;-74
2024/04/17 13:06:36;;;;;;;1.20;1.00;;;;;;;;;;5423147;26;20481;-74
2024/04/17 13:09:08;;;;;;;2.03;1.10;;;;;;;;;;5422749;26;20538;-74
2024/04/17 13:11:38;;;;;;;4.13;2.33;;;;;;;;;;5427194;26;20579;-74
2024/04/17 13:14:07;;;;;;;1.63;1.20;;;;;;;;;;5422662;26;20529;-74
2024/04/17 13:16:37;;;;;;;2.23;1.50;;;;;;;;;;5426371;26;20529;-74
2024/04/17 13:19:03;;;;;;;2.00;1.20;;;;;;;;;;5443238;26;20477;-73
2024/04/17 13:21:32;;;;;;;1.23;1.13;;;;;;;;;;5447570;26;20527;-73
2024/04/17 13:23:58;;;;;;;8.30;2.07;;;;;;;;;;5447568;26;20517;-74
2024/04/17 13:26:29;;;;;;;2.07;1.27;;;;;;;;;;5437886;26;20475;-74
2024/04/17 13:28:56;;;;;;;2.57;1.07;;;;;;;;;;5441318;26;20828;-74
2024/04/17 13:31:25;;;;;;;1.00;1.00;;;;;;;;;;5425072;26;20588;-73
2024/04/17 13:33:51;;;;;;;2.83;1.10;;;;;;;;;;5433090;26;20474;-73
2024/04/17 13:36:20;;;;;;;1.53;1.13;;;;;;;;;;5440575;26;21447;-74
2024/04/17 13:38:46;;;;;;;3.13;1.30;;;;;;;;;;5429673;26;20542;-73
2024/04/17 13:41:15;;;;;;;1.33;1.10;;;;;;;;;;5437948;26;21454;-73
2024/04/17 13:43:44;;;;;;;1.50;1.40;;;;;;;;;;5426528;26;20478;-73
2024/04/17 13:46:14;;;;;;;1.27;1.10;;;;;;;;;;5438332;26;20588;-72
2024/04/17 13:48:40;;;;;;;2.00;0.97;;;;;;;;;;5428491;26;21174;-74
2024/04/17 13:51:10;;;;;;;1.30;0.90;;;;;;;;;;5442246;26;20529;-73
2024/04/17 13:53:37;;;;;;;1.87;1.63;;;;;;;;;;5428601;26;20474;-73
2024/04/17 13:56:06;;;;;;;2.53;1.10;;;;;;;;;;5439897;26;20491;-73
2024/04/17 13:58:33;;;;;;;1.73;1.00;;;;;;;;;;5429174;26;20529;-73
2024/04/17 14:01:07;;;;;;;2.37;1.40;;;;;;;;;;5423453;26;20485;-74
2024/04/17 14:03:34;;;;;;;1.27;0.80;;;;;;;;;;5441746;26;20860;-74
2024/04/17 14:06:02;;;;;;;0.77;0.73;;;;;;;;;;5422077;26;20483;-75
2024/04/17 14:08:29;;;;;;;1.20;1.13;;;;;;;;;;5431787;26;20953;-76
2024/04/17 14:11:00;;;;;;;1.87;1.20;;;;;;;;;;5435360;26;20929;-74
2024/04/17 14:13:27;;;;;;;0.90;0.90;;;;;;;;;;5419247;26;20563;-74
2024/04/17 14:15:56;;;;;;;1.07;1.00;;;;;;;;;;5444185;26;20579;-75
2024/04/17 14:18:26;;;;;;;3.10;1.57;;;;;;;;;;5430686;26;21088;-75
2024/04/17 14:20:55;;;;;;;1.10;1.00;;;;;;;;;;5429206;26;21026;-74
2024/04/17 14:23:21;;;;;;;2.30;2.20;;;;;;;;;;5444831;26;20467;-75
2024/04/17 14:25:57;;;;;;;2.20;1.17;;;;;;;;;;5421953;26;20485;-75
2024/04/17 14:28:23;;;;;;;1.60;0.93;;;;;;;;;;5436250;26;20949;-75
2024/04/17 14:30:57;;;;;;;3.20;1.30;;;;;;;;;;5437490;26;20537;-74
2024/04/17 14:33:26;;;;;;;2.33;1.10;;;;;;;;;;5421542;26;20532;-75
2024/04/17 14:35:55;;;;;;;1.13;1.03;;;;;;;;;;5444319;26;20522;-74
2024/04/17 14:38:21;;;;;;;1.70;1.37;;;;;;;;;;5430045;26;21109;-74
2024/04/17 14:40:59;;;;;;;1.17;1.07;;;;;;;;;;5430176;26;20582;-74
2024/04/17 14:43:25;;;;;;;1.97;1.87;;;;;;;;;;5445106;26;20519;-74
2024/04/17 14:45:58;;;;;;;4.23;1.20;;;;;;;;;;5422861;26;20570;-74
2024/04/17 14:48:28;;;;;;;1.57;1.47;;;;;;;;;;5435728;26;20535;-74